sensor_id;sensor_type;location;lat;lon;timestamp;pressure;altitude;pressure_sealevel;temperature;humidity
17615;BME280;8926;49.720;6.576;2024-02-23T00:00:20;97557.16;;;7.64;75.44
17615;BME280;8926;49.720;6.576;2024-02-23T00:02:45;97551.38;;;7.60;75.99
17615;BME280;8926;49.720;6.576;2024-02-23T00:05:10;97559.75;;;7.64;76.02
17615;BME280;8926;49.720;6.576;2024-02-23T00:07:35;97582.31;;;7.63;76.34
17615;BME280;8926;49.720;6.576;2024-02-23T00:10:01;97576.78;;;7.57;75.90
17615;BME280;8926;49.720;6.576;2024-02-23T00:12:26;97583.44;;;7.49;75.35
17615;BME280;8926;49.720;6.576;2024-02-23T00:14:51;97591.13;;;7.40;74.64
17615;BME280;8926;49.720;6.576;2024-02-23T00:17:16;97592.88;;;7.28;74.45
17615;BME280;8926;49.720;6.576;2024-02-23T00:19:41;97580.97;;;7.37;75.68
17615;BME280;8926;49.720;6.576;2024-02-23T00:22:06;97587.22;;;7.34;74.99
17615;BME280;8926;49.720;6.576;2024-02-23T00:24:32;97592.41;;;7.34;74.86
17615;BME280;8926;49.720;6.576;2024-02-23T00:26:57;97592.41;;;7.34;74.25
17615;BME280;8926;49.720;6.576;2024-02-23T00:29:22;97602.09;;;7.32;74.06
17615;BME280;8926;49.720;6.576;2024-02-23T00:31:47;97596.91;;;7.32;74.58
17615;BME280;8926;49.720;6.576;2024-02-23T00:34:13;97602.81;;;7.34;74.84
17615;BME280;8926;49.720;6.576;2024-02-23T00:36:39;97598.53;;;7.33;74.49
17615;BME280;8926;49.720;6.576;2024-02-23T00:39:04;97590.16;;;7.30;73.95
17615;BME280;8926;49.720;6.576;2024-02-23T00:41:30;97595.03;;;7.23;74.98
17615;BME280;8926;49.720;6.576;2024-02-23T00:43:55;97606.84;;;7.27;74.94
17615;BME280;8926;49.720;6.576;2024-02-23T00:46:20;97614.63;;;7.16;76.30
17615;BME280;8926;49.720;6.576;2024-02-23T00:48:45;97625.84;;;7.17;76.77
17615;BME280;8926;49.720;6.576;2024-02-23T00:51:11;97631.25;;;7.13;76.87
17615;BME280;8926;49.720;6.576;2024-02-23T00:53:36;97620.75;;;7.04;77.68
17615;BME280;8926;49.720;6.576;2024-02-23T00:56:01;97633.00;;;7.02;78.08
17615;BME280;8926;49.720;6.576;2024-02-23T00:58:26;97629.72;;;7.00;77.79
17615;BME280;8926;49.720;6.576;2024-02-23T01:00:52;97636.81;;;6.98;77.52
17615;BME280;8926;49.720;6.576;2024-02-23T01:03:17;97638.91;;;6.93;77.56
17615;BME280;8926;49.720;6.576;2024-02-23T01:05:42;97637.88;;;6.95;77.06
17615;BME280;8926;49.720;6.576;2024-02-23T01:08:07;97644.09;;;6.93;76.81
17615;BME280;8926;49.720;6.576;2024-02-23T01:10:33;97646.22;;;6.88;77.32
17615;BME280;8926;49.720;6.576;2024-02-23T01:12:58;97635.13;;;6.86;76.86
17615;BME280;8926;49.720;6.576;2024-02-23T01:15:23;97635.16;;;6.97;76.65
17615;BME280;8926;49.720;6.576;2024-02-23T01:17:48;97644.72;;;6.96;76.36
17615;BME280;8926;49.720;6.576;2024-02-23T01:20:13;97644.34;;;6.90;76.02
17615;BME280;8926;49.720;6.576;2024-02-23T01:22:39;97640.81;;;6.91;76.02
17615;BME280;8926;49.720;6.576;2024-02-23T01:25:04;97653.06;;;6.89;75.99
17615;BME280;8926;49.720;6.576;2024-02-23T01:27:29;97654.50;;;6.93;76.56
17615;BME280;8926;49.720;6.576;2024-02-23T01:29:55;97653.06;;;6.89;76.41
17615;BME280;8926;49.720;6.576;2024-02-23T01:32:20;97651.41;;;6.88;76.66
17615;BME280;8926;49.720;6.576;2024-02-23T01:34:45;97669.47;;;6.89;76.51
17615;BME280;8926;49.720;6.576;2024-02-23T01:37:10;97670.28;;;6.90;76.98
17615;BME280;8926;49.720;6.576;2024-02-23T01:39:36;97674.88;;;6.86;76.73
17615;BME280;8926;49.720;6.576;2024-02-23T01:42:01;97681.00;;;6.85;77.58
17615;BME280;8926;49.720;6.576;2024-02-23T01:44:26;97667.66;;;6.78;78.11
17615;BME280;8926;49.720;6.576;2024-02-23T01:46:52;97664.59;;;6.73;78.37
17615;BME280;8926;49.720;6.576;2024-02-23T01:49:17;97665.88;;;6.68;79.14
17615;BME280;8926;49.720;6.576;2024-02-23T01:51:43;97673.78;;;6.66;79.29
17615;BME280;8926;49.720;6.576;2024-02-23T01:54:08;97679.41;;;6.60;79.21
17615;BME280;8926;49.720;6.576;2024-02-23T01:56:33;97671.84;;;6.57;79.69
17615;BME280;8926;49.720;6.576;2024-02-23T01:59:01;97665.34;;;6.52;80.15
17615;BME280;8926;49.720;6.576;2024-02-23T02:01:28;97688.56;;;6.53;79.88
17615;BME280;8926;49.720;6.576;2024-02-23T02:03:53;97697.06;;;6.55;80.08
17615;BME280;8926;49.720;6.576;2024-02-23T02:06:18;97698.94;;;6.53;80.35
17615;BME280;8926;49.720;6.576;2024-02-23T02:08:44;97712.97;;;6.51;80.53
17615;BME280;8926;49.720;6.576;2024-02-23T02:11:09;97706.72;;;6.53;80.92
17615;BME280;8926;49.720;6.576;2024-02-23T02:13:34;97709.53;;;6.50;81.15
17615;BME280;8926;49.720;6.576;2024-02-23T02:16:00;97715.44;;;6.52;81.66
17615;BME280;8926;49.720;6.576;2024-02-23T02:18:26;97724.41;;;6.48;81.88
17615;BME280;8926;49.720;6.576;2024-02-23T02:20:51;97716.63;;;6.48;82.29
17615;BME280;8926;49.720;6.576;2024-02-23T02:23:18;97722.41;;;6.52;82.70
17615;BME280;8926;49.720;6.576;2024-02-23T02:25:43;97735.25;;;6.53;83.28
17615;BME280;8926;49.720;6.576;2024-02-23T02:28:09;97732.78;;;6.52;83.86
17615;BME280;8926;49.720;6.576;2024-02-23T02:30:34;97733.59;;;6.52;83.92
17615;BME280;8926;49.720;6.576;2024-02-23T02:32:59;97732.19;;;6.48;84.69
17615;BME280;8926;49.720;6.576;2024-02-23T02:35:24;97722.66;;;6.49;84.74
17615;BME280;8926;49.720;6.576;2024-02-23T02:37:49;97719.66;;;6.42;85.34
17615;BME280;8926;49.720;6.576;2024-02-23T02:40:15;97723.41;;;6.38;85.70
17615;BME280;8926;49.720;6.576;2024-02-23T02:42:41;97716.25;;;6.41;85.62
17615;BME280;8926;49.720;6.576;2024-02-23T02:45:06;97724.13;;;6.40;85.25
17615;BME280;8926;49.720;6.576;2024-02-23T02:47:31;97719.81;;;6.28;85.88
17615;BME280;8926;49.720;6.576;2024-02-23T02:49:56;97732.31;;;6.23;86.01
17615;BME280;8926;49.720;6.576;2024-02-23T02:52:22;97731.34;;;6.24;85.80
17615;BME280;8926;49.720;6.576;2024-02-23T02:54:48;97721.69;;;6.26;85.15
17615;BME280;8926;49.720;6.576;2024-02-23T02:57:14;97728.75;;;6.24;85.12
17615;BME280;8926;49.720;6.576;2024-02-23T02:59:39;97727.94;;;6.23;84.61
17615;BME280;8926;49.720;6.576;2024-02-23T03:02:04;97724.84;;;6.18;85.21
17615;BME280;8926;49.720;6.576;2024-02-23T03:04:29;97722.16;;;6.20;84.68
17615;BME280;8926;49.720;6.576;2024-02-23T03:06:55;97723.56;;;6.24;84.18
17615;BME280;8926;49.720;6.576;2024-02-23T03:09:20;97718.84;;;6.18;84.21
17615;BME280;8926;49.720;6.576;2024-02-23T03:11:45;97733.78;;;6.14;83.87
17615;BME280;8926;49.720;6.576;2024-02-23T03:14:10;97736.25;;;6.16;84.16
17615;BME280;8926;49.720;6.576;2024-02-23T03:16:35;97735.03;;;6.08;83.76
17615;BME280;8926;49.720;6.576;2024-02-23T03:19:02;97728.19;;;6.07;84.24
17615;BME280;8926;49.720;6.576;2024-02-23T03:21:28;97742.09;;;6.06;84.28
17615;BME280;8926;49.720;6.576;2024-02-23T03:23:53;97736.09;;;6.06;84.40
17615;BME280;8926;49.720;6.576;2024-02-23T03:26:18;97732.34;;;6.10;84.63
17615;BME280;8926;49.720;6.576;2024-02-23T03:28:43;97740.22;;;6.08;84.58
17615;BME280;8926;49.720;6.576;2024-02-23T03:31:08;97744.38;;;6.11;84.43
17615;BME280;8926;49.720;6.576;2024-02-23T03:33:34;97740.00;;;6.11;83.93
17615;BME280;8926;49.720;6.576;2024-02-23T03:35:59;97733.59;;;6.04;83.73
17615;BME280;8926;49.720;6.576;2024-02-23T03:38:24;97729.03;;;6.08;83.96
17615;BME280;8926;49.720;6.576;2024-02-23T03:40:49;97728.19;;;6.07;83.64
17615;BME280;8926;49.720;6.576;2024-02-23T03:43:14;97725.56;;;5.96;83.54
17615;BME280;8926;49.720;6.576;2024-02-23T03:45:40;97711.66;;;5.97;83.87
17615;BME280;8926;49.720;6.576;2024-02-23T03:48:05;97718.47;;;5.98;83.66
17615;BME280;8926;49.720;6.576;2024-02-23T03:50:30;97721.53;;;5.92;83.69
17615;BME280;8926;49.720;6.576;2024-02-23T03:52:56;97719.88;;;5.91;83.30
17615;BME280;8926;49.720;6.576;2024-02-23T03:55:21;97711.16;;;5.92;83.33
17615;BME280;8926;49.720;6.576;2024-02-23T03:57:47;97709.69;;;5.88;82.86
17615;BME280;8926;49.720;6.576;2024-02-23T04:00:12;97709.50;;;5.91;82.51
17615;BME280;8926;49.720;6.576;2024-02-23T04:02:38;97701.72;;;5.91;82.78
17615;BME280;8926;49.720;6.576;2024-02-23T04:05:03;97696.72;;;5.88;82.66
17615;BME280;8926;49.720;6.576;2024-02-23T04:07:28;97700.06;;;5.90;82.92
17615;BME280;8926;49.720;6.576;2024-02-23T04:09:54;97704.50;;;5.88;82.60
17615;BME280;8926;49.720;6.576;2024-02-23T04:12:20;97703.97;;;5.83;83.31
17615;BME280;8926;49.720;6.576;2024-02-23T04:14:45;97707.50;;;5.82;83.43
17615;BME280;8926;49.720;6.576;2024-02-23T04:17:11;97703.47;;;5.78;84.00
17615;BME280;8926;49.720;6.576;2024-02-23T04:19:37;97719.75;;;5.80;83.51
17615;BME280;8926;49.720;6.576;2024-02-23T04:22:02;97712.69;;;5.82;83.69
17615;BME280;8926;49.720;6.576;2024-02-23T04:24:27;97715.50;;;5.79;83.41
17615;BME280;8926;49.720;6.576;2024-02-23T04:26:52;97717.47;;;5.75;83.46
17615;BME280;8926;49.720;6.576;2024-02-23T04:29:18;97719.75;;;5.80;83.47
17615;BME280;8926;49.720;6.576;2024-02-23T04:31:43;97718.81;;;5.81;83.35
17615;BME280;8926;49.720;6.576;2024-02-23T04:34:08;97712.91;;;5.79;83.63
17615;BME280;8926;49.720;6.576;2024-02-23T04:36:33;97706.06;;;5.78;83.58
17615;BME280;8926;49.720;6.576;2024-02-23T04:38:58;97710.09;;;5.82;83.11
17615;BME280;8926;49.720;6.576;2024-02-23T04:41:23;97701.00;;;5.76;83.51
17615;BME280;8926;49.720;6.576;2024-02-23T04:43:49;97714.16;;;5.73;83.55
17615;BME280;8926;49.720;6.576;2024-02-23T04:46:15;97716.22;;;5.81;83.14
17615;BME280;8926;49.720;6.576;2024-02-23T04:48:40;97717.03;;;5.82;82.96
17615;BME280;8926;49.720;6.576;2024-02-23T04:51:06;97724.91;;;5.80;82.75
17615;BME280;8926;49.720;6.576;2024-02-23T04:53:37;97721.19;;;5.84;83.17
17615;BME280;8926;49.720;6.576;2024-02-23T04:56:03;97725.31;;;5.87;83.36
17615;BME280;8926;49.720;6.576;2024-02-23T04:58:28;97727.81;;;5.88;82.25
17615;BME280;8926;49.720;6.576;2024-02-23T05:00:53;97731.78;;;5.94;82.79
17615;BME280;8926;49.720;6.576;2024-02-23T05:03:20;97724.72;;;5.96;82.29
17615;BME280;8926;49.720;6.576;2024-02-23T05:05:45;97726.59;;;5.94;82.60
17615;BME280;8926;49.720;6.576;2024-02-23T05:08:10;97723.91;;;5.95;82.25
17615;BME280;8926;49.720;6.576;2024-02-23T05:10:36;97715.19;;;5.96;81.91
17615;BME280;8926;49.720;6.576;2024-02-23T05:13:01;97708.34;;;5.95;82.63
17615;BME280;8926;49.720;6.576;2024-02-23T05:15:26;97703.16;;;5.95;82.83
17615;BME280;8926;49.720;6.576;2024-02-23T05:17:51;97705.41;;;6.00;82.88
17615;BME280;8926;49.720;6.576;2024-02-23T05:20:16;97705.41;;;6.00;82.36
17615;BME280;8926;49.720;6.576;2024-02-23T05:22:42;97692.56;;;5.98;82.62
17615;BME280;8926;49.720;6.576;2024-02-23T05:25:07;97693.84;;;5.93;83.00
17615;BME280;8926;49.720;6.576;2024-02-23T05:27:32;97679.34;;;5.90;82.82
17615;BME280;8926;49.720;6.576;2024-02-23T05:29:57;97679.50;;;5.87;82.81
17615;BME280;8926;49.720;6.576;2024-02-23T05:32:23;97682.03;;;5.89;82.56
17615;BME280;8926;49.720;6.576;2024-02-23T05:34:48;97679.34;;;5.90;82.91
17615;BME280;8926;49.720;6.576;2024-02-23T05:37:16;97683.03;;;5.86;83.57
17615;BME280;8926;49.720;6.576;2024-02-23T05:39:41;97684.19;;;5.95;83.08
17615;BME280;8926;49.720;6.576;2024-02-23T05:42:07;97684.78;;;5.98;83.76
17615;BME280;8926;49.720;6.576;2024-02-23T05:44:32;97673.72;;;5.96;83.08
17615;BME280;8926;49.720;6.576;2024-02-23T05:46:58;97680.22;;;6.02;83.19
17615;BME280;8926;49.720;6.576;2024-02-23T05:49:23;97678.66;;;5.99;83.25
17615;BME280;8926;49.720;6.576;2024-02-23T05:51:49;97674.31;;;6.00;83.50
17615;BME280;8926;49.720;6.576;2024-02-23T05:54:14;97666.63;;;5.98;83.61
17615;BME280;8926;49.720;6.576;2024-02-23T05:56:39;97668.28;;;5.99;82.99
17615;BME280;8926;49.720;6.576;2024-02-23T05:59:04;97664.19;;;5.97;83.14
17615;BME280;8926;49.720;6.576;2024-02-23T06:01:31;97662.75;;;5.93;83.31
17615;BME280;8926;49.720;6.576;2024-02-23T06:03:56;97663.78;;;5.90;83.12
17615;BME280;8926;49.720;6.576;2024-02-23T06:06:21;97661.59;;;5.84;82.87
17615;BME280;8926;49.720;6.576;2024-02-23T06:08:46;97662.84;;;5.78;83.79
17615;BME280;8926;49.720;6.576;2024-02-23T06:11:14;97670.50;;;5.80;83.28
17615;BME280;8926;49.720;6.576;2024-02-23T06:13:39;97664.19;;;5.84;83.38
17615;BME280;8926;49.720;6.576;2024-02-23T06:16:05;97662.53;;;5.83;82.91
17615;BME280;8926;49.720;6.576;2024-02-23T06:18:36;97655.91;;;5.79;83.42
17615;BME280;8926;49.720;6.576;2024-02-23T06:21:10;97660.66;;;5.85;83.55
17615;BME280;8926;49.720;6.576;2024-02-23T06:23:35;97663.16;;;5.87;82.79
17615;BME280;8926;49.720;6.576;2024-02-23T06:26:00;97665.00;;;5.85;83.47
17615;BME280;8926;49.720;6.576;2024-02-23T06:28:25;97655.59;;;5.84;83.75
17615;BME280;8926;49.720;6.576;2024-02-23T06:30:50;97657.13;;;5.86;83.23
17615;BME280;8926;49.720;6.576;2024-02-23T06:33:25;97664.19;;;5.84;83.05
17615;BME280;8926;49.720;6.576;2024-02-23T06:36:00;97653.81;;;5.84;83.03
17615;BME280;8926;49.720;6.576;2024-02-23T06:38:26;97658.78;;;5.87;83.57
17615;BME280;8926;49.720;6.576;2024-02-23T06:40:51;97654.66;;;5.85;83.33
17615;BME280;8926;49.720;6.576;2024-02-23T06:43:17;97659.00;;;5.84;83.11
17615;BME280;8926;49.720;6.576;2024-02-23T06:45:42;97648.34;;;5.89;83.37
17615;BME280;8926;49.720;6.576;2024-02-23T06:48:07;97648.44;;;5.87;83.38
17615;BME280;8926;49.720;6.576;2024-02-23T06:50:33;97644.19;;;5.86;82.88
17615;BME280;8926;49.720;6.576;2024-02-23T06:52:58;97649.34;;;5.86;83.21
17615;BME280;8926;49.720;6.576;2024-02-23T06:55:23;97651.00;;;5.87;83.19
17615;BME280;8926;49.720;6.576;2024-02-23T06:57:48;97657.13;;;5.86;83.90
17615;BME280;8926;49.720;6.576;2024-02-23T07:00:13;97658.38;;;5.93;83.38
17615;BME280;8926;49.720;6.576;2024-02-23T07:02:39;97669.22;;;5.98;83.04
17615;BME280;8926;49.720;6.576;2024-02-23T07:05:04;97665.00;;;5.97;83.26
17615;BME280;8926;49.720;6.576;2024-02-23T07:07:30;97666.88;;;5.95;83.27
17615;BME280;8926;49.720;6.576;2024-02-23T07:09:56;97678.66;;;5.99;82.96
17615;BME280;8926;49.720;6.576;2024-02-23T07:12:22;97675.13;;;6.00;83.33
17615;BME280;8926;49.720;6.576;2024-02-23T07:14:47;97680.09;;;6.03;83.18
17615;BME280;8926;49.720;6.576;2024-02-23T07:17:16;97673.03;;;6.05;82.64
17615;BME280;8926;49.720;6.576;2024-02-23T07:19:41;97674.91;;;6.03;82.60
17615;BME280;8926;49.720;6.576;2024-02-23T07:22:06;97674.47;;;6.09;83.19
17615;BME280;8926;49.720;6.576;2024-02-23T07:24:31;97670.75;;;6.13;82.57
17615;BME280;8926;49.720;6.576;2024-02-23T07:26:57;97669.81;;;6.15;82.86
17615;BME280;8926;49.720;6.576;2024-02-23T07:29:22;97670.03;;;6.11;82.41
17615;BME280;8926;49.720;6.576;2024-02-23T07:31:47;97669.09;;;6.12;82.82
17615;BME280;8926;49.720;6.576;2024-02-23T07:34:12;97674.06;;;6.16;82.60
17615;BME280;8926;49.720;6.576;2024-02-23T07:36:37;97671.47;;;6.16;83.01
17615;BME280;8926;49.720;6.576;2024-02-23T07:39:04;97663.47;;;6.19;82.50
17615;BME280;8926;49.720;6.576;2024-02-23T07:41:29;97672.41;;;6.15;82.65
17615;BME280;8926;49.720;6.576;2024-02-23T07:43:54;97674.88;;;6.16;83.19
17615;BME280;8926;49.720;6.576;2024-02-23T07:46:19;97685.25;;;6.16;82.84
17615;BME280;8926;49.720;6.576;2024-02-23T07:48:47;97677.16;;;6.21;82.93
17615;BME280;8926;49.720;6.576;2024-02-23T07:51:13;97685.41;;;6.26;82.89
17615;BME280;8926;49.720;6.576;2024-02-23T07:53:38;97686.34;;;6.25;82.90
17615;BME280;8926;49.720;6.576;2024-02-23T07:56:03;97682.56;;;6.18;83.00
17615;BME280;8926;49.720;6.576;2024-02-23T07:58:29;97677.16;;;6.21;83.37
17615;BME280;8926;49.720;6.576;2024-02-23T08:00:54;97689.16;;;6.22;83.24
17615;BME280;8926;49.720;6.576;2024-02-23T08:03:20;97681.50;;;6.55;82.26
17615;BME280;8926;49.720;6.576;2024-02-23T08:05:45;97667.91;;;6.75;81.28
17615;BME280;8926;49.720;6.576;2024-02-23T08:08:10;97673.78;;;6.66;81.51
17615;BME280;8926;49.720;6.576;2024-02-23T08:10:35;97677.31;;;6.65;81.44
17615;BME280;8926;49.720;6.576;2024-02-23T08:13:00;97677.97;;;6.56;81.87
17615;BME280;8926;49.720;6.576;2024-02-23T08:15:26;97679.63;;;6.57;82.11
17615;BME280;8926;49.720;6.576;2024-02-23T08:17:51;97682.44;;;6.54;81.23
17615;BME280;8926;49.720;6.576;2024-02-23T08:20:16;97688.78;;;6.50;81.68
17615;BME280;8926;49.720;6.576;2024-02-23T08:22:41;97685.25;;;6.51;81.68
17615;BME280;8926;49.720;6.576;2024-02-23T08:25:07;97700.97;;;6.50;82.01
17615;BME280;8926;49.720;6.576;2024-02-23T08:27:32;97701.06;;;6.48;81.62
17615;BME280;8926;49.720;6.576;2024-02-23T08:29:58;97693.28;;;6.48;81.68
17615;BME280;8926;49.720;6.576;2024-02-23T08:32:23;97702.94;;;6.46;81.83
17615;BME280;8926;49.720;6.576;2024-02-23T08:34:48;97704.13;;;6.53;82.00
17615;BME280;8926;49.720;6.576;2024-02-23T08:37:13;97707.22;;;6.58;82.03
17615;BME280;8926;49.720;6.576;2024-02-23T08:39:38;97710.66;;;6.59;82.04
17615;BME280;8926;49.720;6.576;2024-02-23T08:42:04;97714.25;;;6.69;82.02
17615;BME280;8926;49.720;6.576;2024-02-23T08:44:29;97708.94;;;6.70;81.47
17615;BME280;8926;49.720;6.576;2024-02-23T08:46:54;97717.31;;;6.74;81.58
17615;BME280;8926;49.720;6.576;2024-02-23T08:49:19;97712.72;;;6.77;81.11
17615;BME280;8926;49.720;6.576;2024-02-23T08:51:44;97714.38;;;6.78;81.25
17615;BME280;8926;49.720;6.576;2024-02-23T08:54:10;97724.53;;;6.81;81.33
17615;BME280;8926;49.720;6.576;2024-02-23T08:56:38;97717.78;;;6.79;81.45
17615;BME280;8926;49.720;6.576;2024-02-23T08:59:07;97726.50;;;6.78;80.84
17615;BME280;8926;49.720;6.576;2024-02-23T09:01:33;97708.59;;;6.75;80.94
17615;BME280;8926;49.720;6.576;2024-02-23T09:03:58;97717.91;;;6.77;81.02
17615;BME280;8926;49.720;6.576;2024-02-23T09:06:23;97712.50;;;6.80;81.41
17615;BME280;8926;49.720;6.576;2024-02-23T09:08:48;97719.09;;;6.85;82.03
17615;BME280;8926;49.720;6.576;2024-02-23T09:11:14;97712.72;;;6.77;81.12
17615;BME280;8926;49.720;6.576;2024-02-23T09:13:40;97714.38;;;6.78;81.57
17615;BME280;8926;49.720;6.576;2024-02-23T09:16:07;97719.09;;;6.85;81.13
17615;BME280;8926;49.720;6.576;2024-02-23T09:18:32;97726.78;;;6.86;81.59
17615;BME280;8926;49.720;6.576;2024-02-23T09:20:57;97715.84;;;7.05;80.88
17615;BME280;8926;49.720;6.576;2024-02-23T09:23:24;97722.84;;;7.15;80.69
17615;BME280;8926;49.720;6.576;2024-02-23T09:25:49;97728.19;;;7.25;80.15
17615;BME280;8926;49.720;6.576;2024-02-23T09:28:14;97717.53;;;7.28;80.01
17615;BME280;8926;49.720;6.576;2024-02-23T09:30:40;97724.38;;;7.29;79.60
17615;BME280;8926;49.720;6.576;2024-02-23T09:33:05;97725.13;;;7.42;79.42
17615;BME280;8926;49.720;6.576;2024-02-23T09:35:30;97708.78;;;7.96;78.21
17615;BME280;8926;49.720;6.576;2024-02-23T09:37:55;97712.88;;;8.21;77.35
17615;BME280;8926;49.720;6.576;2024-02-23T09:40:21;97706.34;;;8.91;75.18
17615;BME280;8926;49.720;6.576;2024-02-23T09:42:48;97707.00;;;9.04;72.83
17615;BME280;8926;49.720;6.576;2024-02-23T09:45:17;97710.09;;;8.77;74.56
17615;BME280;8926;49.720;6.576;2024-02-23T09:47:42;97715.81;;;8.39;74.39
17615;BME280;8926;49.720;6.576;2024-02-23T09:50:08;97722.50;;;7.98;75.59
17615;BME280;8926;49.720;6.576;2024-02-23T09:52:34;97713.53;;;7.80;76.06
17615;BME280;8926;49.720;6.576;2024-02-23T09:54:59;97718.16;;;7.76;77.10
17615;BME280;8926;49.720;6.576;2024-02-23T09:57:25;97711.53;;;7.72;77.45
17615;BME280;8926;49.720;6.576;2024-02-23T09:59:50;97705.53;;;7.72;76.53
17615;BME280;8926;49.720;6.576;2024-02-23T10:02:16;97711.66;;;7.71;76.70
17615;BME280;8926;49.720;6.576;2024-02-23T10:04:42;97712.00;;;7.66;77.02
17615;BME280;8926;49.720;6.576;2024-02-23T10:07:14;97713.78;;;7.55;76.78
17615;BME280;8926;49.720;6.576;2024-02-23T10:09:39;97719.44;;;7.60;77.81
17615;BME280;8926;49.720;6.576;2024-02-23T10:12:05;97733.25;;;7.60;77.66
17615;BME280;8926;49.720;6.576;2024-02-23T10:14:30;97730.78;;;7.59;77.44
17615;BME280;8926;49.720;6.576;2024-02-23T10:16:56;97719.22;;;7.63;77.69
17615;BME280;8926;49.720;6.576;2024-02-23T10:19:22;97727.00;;;7.63;77.36
17615;BME280;8926;49.720;6.576;2024-02-23T10:21:47;97716.63;;;7.63;77.74
17615;BME280;8926;49.720;6.576;2024-02-23T10:24:13;97721.34;;;7.69;77.61
17615;BME280;8926;49.720;6.576;2024-02-23T10:26:41;97719.47;;;7.71;77.42
17615;BME280;8926;49.720;6.576;2024-02-23T10:29:06;97720.38;;;7.81;77.36
17615;BME280;8926;49.720;6.576;2024-02-23T10:31:35;97717.09;;;7.79;76.27
17615;BME280;8926;49.720;6.576;2024-02-23T10:34:07;97716.59;;;7.85;76.61
17615;BME280;8926;49.720;6.576;2024-02-23T10:36:34;97718.50;;;7.83;76.79
17615;BME280;8926;49.720;6.576;2024-02-23T10:39:01;97721.56;;;7.88;76.94
17615;BME280;8926;49.720;6.576;2024-02-23T10:41:28;97729.13;;;7.80;75.42
17615;BME280;8926;49.720;6.576;2024-02-23T10:43:56;97727.72;;;7.76;74.49
17615;BME280;8926;49.720;6.576;2024-02-23T10:46:24;97734.31;;;7.80;74.68
17615;BME280;8926;49.720;6.576;2024-02-23T10:48:50;97734.44;;;7.90;74.74
17615;BME280;8926;49.720;6.576;2024-02-23T10:51:15;97735.25;;;8.01;74.81
17615;BME280;8926;49.720;6.576;2024-02-23T10:53:41;97726.47;;;8.13;74.11
17615;BME280;8926;49.720;6.576;2024-02-23T10:56:08;97729.66;;;8.28;73.42
17615;BME280;8926;49.720;6.576;2024-02-23T10:58:35;97724.81;;;8.35;73.56
17615;BME280;8926;49.720;6.576;2024-02-23T11:01:01;97721.47;;;8.44;72.59
17615;BME280;8926;49.720;6.576;2024-02-23T11:03:28;97716.06;;;8.68;71.76
17615;BME280;8926;49.720;6.576;2024-02-23T11:05:54;97703.47;;;9.66;69.98
17615;BME280;8926;49.720;6.576;2024-02-23T11:08:19;97694.47;;;9.89;68.10
17615;BME280;8926;49.720;6.576;2024-02-23T11:10:51;97693.22;;;9.43;67.65
17615;BME280;8926;49.720;6.576;2024-02-23T11:13:17;97700.31;;;9.32;68.81
17615;BME280;8926;49.720;6.576;2024-02-23T11:15:42;97695.81;;;9.43;69.27
17615;BME280;8926;49.720;6.576;2024-02-23T11:18:26;97696.69;;;9.23;70.26
17615;BME280;8926;49.720;6.576;2024-02-23T11:20:55;97693.03;;;9.66;70.67
17615;BME280;8926;49.720;6.576;2024-02-23T11:23:21;97677.47;;;9.85;68.90
17615;BME280;8926;49.720;6.576;2024-02-23T11:28:27;97678.19;;;9.57;69.21
17615;BME280;8926;49.720;6.576;2024-02-23T11:30:53;97671.53;;;9.33;69.67
17615;BME280;8926;49.720;6.576;2024-02-23T11:33:34;97670.56;;;9.13;69.83
17615;BME280;8926;49.720;6.576;2024-02-23T11:36:06;97675.50;;;9.07;70.08
17615;BME280;8926;49.720;6.576;2024-02-23T11:38:32;97685.03;;;8.97;70.18
17615;BME280;8926;49.720;6.576;2024-02-23T11:40:57;97683.41;;;8.84;69.66
17615;BME280;8926;49.720;6.576;2024-02-23T11:43:24;97687.41;;;8.89;70.93
17615;BME280;8926;49.720;6.576;2024-02-23T11:45:49;97683.88;;;8.90;69.91
17615;BME280;8926;49.720;6.576;2024-02-23T11:48:16;97684.38;;;8.83;70.65
17615;BME280;8926;49.720;6.576;2024-02-23T11:50:41;97685.34;;;8.82;70.04
17615;BME280;8926;49.720;6.576;2024-02-23T11:53:06;97684.38;;;8.83;69.71
17615;BME280;8926;49.720;6.576;2024-02-23T11:55:32;97700.28;;;8.80;69.42
17615;BME280;8926;49.720;6.576;2024-02-23T11:57:57;97703.13;;;8.77;70.91
17615;BME280;8926;49.720;6.576;2024-02-23T12:00:23;97718.38;;;8.82;71.86
17615;BME280;8926;49.720;6.576;2024-02-23T12:02:48;97704.88;;;9.18;74.44
17615;BME280;8926;49.720;6.576;2024-02-23T12:05:15;97694.47;;;9.18;74.86
17615;BME280;8926;49.720;6.576;2024-02-23T12:07:40;97702.63;;;9.04;76.42
17615;BME280;8926;49.720;6.576;2024-02-23T12:10:06;97689.41;;;8.96;77.13
17615;BME280;8926;49.720;6.576;2024-02-23T12:12:31;97705.47;;;8.80;76.83
17615;BME280;8926;49.720;6.576;2024-02-23T12:14:56;97694.38;;;8.78;78.53
17615;BME280;8926;49.720;6.576;2024-02-23T12:17:22;97689.84;;;8.80;79.20
17615;BME280;8926;49.720;6.576;2024-02-23T12:19:47;97685.19;;;8.84;79.36
17615;BME280;8926;49.720;6.576;2024-02-23T12:22:12;97673.19;;;8.93;78.15
17615;BME280;8926;49.720;6.576;2024-02-23T12:24:37;97684.75;;;9.00;78.66
17615;BME280;8926;49.720;6.576;2024-02-23T12:27:03;97668.09;;;9.12;78.61
17615;BME280;8926;49.720;6.576;2024-02-23T12:29:30;97674.69;;;9.16;78.52
17615;BME280;8926;49.720;6.576;2024-02-23T12:32:04;97664.53;;;9.13;73.69
17615;BME280;8926;49.720;6.576;2024-02-23T12:34:30;97657.16;;;9.18;76.39
17615;BME280;8926;49.720;6.576;2024-02-23T12:36:55;97651.63;;;9.32;76.27
17615;BME280;8926;49.720;6.576;2024-02-23T12:39:20;97648.22;;;9.41;75.78
17615;BME280;8926;49.720;6.576;2024-02-23T12:41:46;97653.59;;;9.49;76.90
17615;BME280;8926;49.720;6.576;2024-02-23T12:44:11;97645.28;;;9.56;74.56
17615;BME280;8926;49.720;6.576;2024-02-23T12:46:37;97636.50;;;9.57;74.67
17615;BME280;8926;49.720;6.576;2024-02-23T12:49:02;97645.03;;;9.68;72.70
17615;BME280;8926;49.720;6.576;2024-02-23T12:51:27;97630.97;;;9.50;74.28
17615;BME280;8926;49.720;6.576;2024-02-23T12:53:53;97639.69;;;9.39;74.34
17615;BME280;8926;49.720;6.576;2024-02-23T12:56:19;97642.16;;;9.31;75.39
17615;BME280;8926;49.720;6.576;2024-02-23T12:58:45;97640.22;;;9.73;76.72
17615;BME280;8926;49.720;6.576;2024-02-23T13:01:10;97628.66;;;10.26;77.24
17615;BME280;8926;49.720;6.576;2024-02-23T13:03:36;97631.97;;;10.28;75.51
17615;BME280;8926;49.720;6.576;2024-02-23T13:06:02;97627.28;;;10.41;76.62
17615;BME280;8926;49.720;6.576;2024-02-23T13:08:27;97631.41;;;10.43;76.08
17615;BME280;8926;49.720;6.576;2024-02-23T13:10:53;97624.66;;;10.41;76.39
17615;BME280;8926;49.720;6.576;2024-02-23T13:13:19;97627.84;;;10.54;77.11
17615;BME280;8926;49.720;6.576;2024-02-23T13:15:44;97627.75;;;10.93;76.38